createdAt,value
2018-09-12T00:00:08.801Z,11.00
2018-09-12T00:02:36.364Z,10.67
2018-09-12T00:05:04.031Z,10.20
2018-09-12T00:07:31.593Z,10.13
2018-09-12T00:09:59.124Z,10.63
2018-09-12T00:12:26.668Z,10.80
2018-09-12T00:14:54.537Z,11.23
2018-09-12T00:17:22.100Z,10.33
2018-09-12T00:19:49.640Z,9.30
2018-09-12T00:22:17.269Z,10.20
2018-09-12T00:24:44.823Z,11.20
2018-09-12T00:27:12.419Z,9.90
2018-09-12T00:29:39.959Z,10.37
2018-09-12T00:32:07.523Z,9.33
2018-09-12T00:34:35.065Z,11.10
2018-09-12T00:37:02.688Z,9.50
2018-09-12T00:39:30.928Z,9.03
2018-09-12T00:41:58.537Z,9.67
2018-09-12T00:44:26.073Z,9.80
2018-09-12T00:46:53.647Z,9.47
2018-09-12T00:49:21.160Z,9.57
2018-09-12T00:51:48.749Z,9.37
2018-09-12T00:54:16.452Z,10.57
2018-09-12T00:56:43.955Z,9.97
2018-09-12T00:59:11.482Z,10.63
2018-09-12T01:01:39.060Z,10.10
2018-09-12T01:04:06.841Z,11.77
2018-09-12T01:06:34.384Z,10.10
2018-09-12T01:09:01.924Z,10.10
2018-09-12T01:11:29.600Z,9.60
2018-09-12T01:13:57.121Z,9.93
2018-09-12T01:16:24.642Z,10.43
2018-09-12T01:18:52.276Z,11.37
2018-09-12T01:21:19.820Z,10.80
2018-09-12T01:23:47.382Z,9.50
2018-09-12T01:26:14.894Z,10.70
2018-09-12T01:28:42.434Z,10.83
2018-09-12T01:31:10.036Z,10.63
2018-09-12T01:33:37.708Z,10.27
2018-09-12T01:36:05.260Z,9.73
2018-09-12T01:38:32.853Z,9.50
2018-09-12T01:41:00.422Z,9.97
2018-09-12T01:43:27.962Z,9.90
2018-09-12T01:45:55.503Z,9.30
2018-09-12T01:48:23.032Z,10.90
2018-09-12T01:50:50.558Z,11.80
2018-09-12T01:53:18.153Z,9.57
2018-09-12T01:55:45.749Z,9.80
2018-09-12T01:58:13.272Z,9.80
2018-09-12T02:00:41.624Z,10.00
2018-09-12T02:03:09.661Z,9.50
2018-09-12T02:05:37.861Z,9.77
2018-09-12T02:08:05.565Z,10.53
2018-09-12T02:10:33.193Z,8.50
2018-09-12T02:13:00.719Z,10.90
2018-09-12T02:15:28.351Z,10.50
2018-09-12T02:17:55.887Z,10.27
2018-09-12T02:20:23.457Z,9.50
2018-09-12T02:22:50.957Z,9.83
2018-09-12T02:25:18.549Z,9.77
2018-09-12T02:27:46.142Z,9.60
2018-09-12T02:30:13.731Z,9.70
2018-09-12T02:32:41.470Z,9.77
2018-09-12T02:35:09.019Z,8.97
2018-09-12T02:37:36.702Z,9.67
2018-09-12T02:40:04.966Z,9.13
2018-09-12T02:42:32.573Z,10.53
2018-09-12T02:45:00.117Z,11.27
2018-09-12T02:47:33.219Z,9.37
2018-09-12T02:50:00.788Z,10.40
2018-09-12T02:52:28.357Z,10.53
2018-09-12T02:54:55.919Z,9.77
2018-09-12T02:57:23.469Z,11.10
2018-09-12T02:59:51.011Z,10.83
2018-09-12T03:02:18.689Z,11.23
2018-09-12T03:04:51.864Z,10.77
2018-09-12T03:07:19.414Z,11.43
2018-09-12T03:09:47.000Z,10.93
2018-09-12T03:12:14.851Z,10.30
2018-09-12T03:14:42.423Z,11.10
2018-09-12T03:17:10.539Z,10.50
2018-09-12T03:19:38.163Z,10.30
2018-09-12T03:22:06.097Z,11.83
2018-09-12T03:24:33.825Z,9.73
2018-09-12T03:27:01.433Z,10.73
2018-09-12T03:29:28.968Z,10.57
2018-09-12T03:31:56.516Z,10.50
2018-09-12T03:34:24.083Z,10.07
2018-09-12T03:36:51.619Z,9.50
2018-09-12T03:39:19.193Z,10.57
2018-09-12T03:41:46.744Z,10.50
2018-09-12T03:44:14.329Z,9.47
2018-09-12T03:46:42.047Z,9.60
2018-09-12T03:49:10.211Z,8.60
2018-09-12T03:51:37.713Z,9.40
2018-09-12T03:54:05.305Z,9.60
2018-09-12T03:56:32.845Z,8.93
2018-09-12T03:59:00.418Z,9.50
2018-09-12T04:01:27.938Z,9.47
2018-09-12T04:03:55.477Z,8.50
2018-09-12T04:06:23.017Z,9.00
2018-09-12T04:08:50.605Z,9.20
2018-09-12T04:11:18.163Z,10.43
2018-09-12T04:13:45.731Z,9.40
2018-09-12T04:16:13.268Z,9.50
2018-09-12T04:18:40.880Z,9.83
2018-09-12T04:21:08.407Z,8.63
2018-09-12T04:23:36.036Z,9.30
2018-09-12T04:26:03.674Z,9.63
2018-09-12T04:28:31.217Z,8.37
2018-09-12T04:30:58.786Z,8.47
2018-09-12T04:33:26.325Z,9.27
2018-09-12T04:35:53.863Z,9.23
2018-09-12T04:38:21.450Z,7.90
2018-09-12T04:40:49.110Z,8.90
2018-09-12T04:43:16.870Z,8.20
2018-09-12T04:45:44.542Z,9.00
2018-09-12T04:48:12.080Z,9.13
2018-09-12T04:50:39.634Z,8.43
2018-09-12T04:53:07.258Z,10.33
2018-09-12T04:55:34.840Z,9.43
2018-09-12T04:58:02.510Z,8.60
2018-09-12T05:00:30.052Z,9.70
2018-09-12T05:02:57.664Z,9.00
2018-09-12T05:05:25.224Z,9.50
2018-09-12T05:07:52.776Z,9.83
2018-09-12T05:10:20.371Z,8.60
2018-09-12T05:12:47.899Z,8.97
2018-09-12T05:15:15.455Z,9.13
2018-09-12T05:17:43.003Z,8.67
2018-09-12T05:20:10.517Z,9.13
2018-09-12T05:22:38.160Z,8.97
2018-09-12T05:25:06.091Z,8.70
2018-09-12T05:27:33.876Z,10.50
2018-09-12T05:30:01.584Z,9.80
2018-09-12T05:32:29.074Z,9.00
2018-09-12T05:34:56.796Z,8.43
2018-09-12T05:37:24.448Z,9.23
2018-09-12T05:39:52.138Z,9.00
2018-09-12T05:42:19.691Z,9.20
2018-09-12T05:44:47.251Z,8.67
2018-09-12T05:47:14.807Z,8.60
2018-09-12T05:49:42.341Z,8.60
2018-09-12T05:52:09.893Z,9.37
2018-09-12T05:54:37.419Z,10.97
2018-09-12T05:57:05.009Z,10.00
2018-09-12T05:59:32.593Z,10.40
2018-09-12T06:02:00.139Z,10.07
2018-09-12T06:04:27.684Z,10.40
2018-09-12T06:06:55.284Z,9.97
2018-09-12T06:09:22.824Z,9.60
2018-09-12T06:11:50.389Z,10.00
2018-09-12T06:14:17.932Z,8.20
2018-09-12T06:16:45.471Z,8.93
2018-09-12T06:19:13.070Z,8.63
2018-09-12T06:21:40.617Z,9.27
2018-09-12T06:24:08.235Z,9.70
2018-09-12T06:26:35.836Z,9.60
2018-09-12T06:29:03.409Z,10.00
2018-09-12T06:31:30.939Z,10.03
2018-09-12T06:33:58.467Z,9.00
2018-09-12T06:36:25.972Z,8.60
2018-09-12T06:38:53.516Z,9.53
2018-09-12T06:41:21.150Z,9.10
2018-09-12T06:43:49.142Z,9.10
2018-09-12T06:46:16.684Z,8.27
2018-09-12T06:48:44.292Z,7.43
2018-09-12T06:51:11.847Z,8.17
2018-09-12T06:53:39.462Z,8.13
2018-09-12T06:56:07.186Z,9.10
2018-09-12T06:58:34.830Z,9.57
2018-09-12T07:01:02.448Z,8.43
2018-09-12T07:03:29.975Z,7.47
2018-09-12T07:05:57.637Z,7.83
2018-09-12T07:08:25.196Z,8.37
2018-09-12T07:10:52.749Z,10.03
2018-09-12T07:13:20.355Z,8.20
2018-09-12T07:15:47.925Z,7.73
2018-09-12T07:18:15.478Z,8.10
2018-09-12T07:20:43.107Z,7.70
2018-09-12T07:23:10.720Z,7.30
2018-09-12T07:25:38.285Z,8.73
2018-09-12T07:28:05.849Z,9.23
2018-09-12T07:30:33.497Z,8.60
2018-09-12T07:33:00.997Z,7.80
2018-09-12T07:35:28.619Z,7.93
2018-09-12T07:37:56.178Z,7.97
2018-09-12T07:40:23.755Z,10.23
2018-09-12T07:42:51.307Z,8.03
2018-09-12T07:45:18.843Z,8.33
2018-09-12T07:47:46.381Z,8.87
2018-09-12T07:50:13.961Z,8.83
2018-09-12T07:52:41.525Z,7.97
2018-09-12T07:55:09.153Z,8.30
2018-09-12T07:57:36.692Z,8.30
2018-09-12T08:00:05.022Z,8.10
2018-09-12T08:02:32.578Z,7.77
2018-09-12T08:05:00.193Z,8.23
2018-09-12T08:07:27.725Z,7.67
2018-09-12T08:09:55.310Z,8.60
2018-09-12T08:12:22.954Z,7.33
2018-09-12T08:14:50.392Z,7.50
2018-09-12T08:17:17.957Z,8.47
2018-09-12T08:19:45.470Z,8.00
2018-09-12T08:22:13.027Z,7.10
2018-09-12T08:24:40.562Z,8.10
2018-09-12T08:27:08.103Z,8.77
2018-09-12T08:29:35.612Z,9.53
2018-09-12T08:32:03.151Z,9.70
2018-09-12T08:34:30.689Z,6.97
2018-09-12T08:36:58.324Z,7.77
2018-09-12T08:39:25.846Z,7.03
2018-09-12T08:41:53.433Z,7.20
2018-09-12T08:44:20.967Z,6.73
2018-09-12T08:46:48.570Z,6.17
2018-09-12T08:49:16.162Z,7.93
2018-09-12T08:51:43.684Z,7.20
2018-09-12T08:54:11.276Z,6.37
2018-09-12T08:56:38.860Z,7.00
2018-09-12T08:59:06.418Z,6.70
2018-09-12T09:01:34.056Z,6.50
2018-09-12T09:04:01.612Z,6.30
2018-09-12T09:06:29.197Z,6.13
2018-09-12T09:08:56.815Z,5.77
2018-09-12T09:11:24.356Z,5.57
2018-09-12T09:13:52.016Z,6.13
2018-09-12T09:16:19.586Z,6.60
2018-09-12T09:18:47.108Z,6.70
2018-09-12T09:21:14.732Z,5.00
2018-09-12T09:23:42.344Z,5.50
2018-09-12T09:26:09.818Z,5.50
2018-09-12T09:28:37.336Z,4.97
2018-09-12T09:31:05.066Z,4.60
2018-09-12T09:33:32.624Z,4.83
2018-09-12T09:36:00.144Z,4.80
2018-09-12T09:38:27.701Z,4.30
2018-09-12T09:40:55.268Z,4.90
2018-09-12T09:43:22.910Z,5.17
2018-09-12T09:45:50.458Z,5.30
2018-09-12T09:48:18.055Z,5.17
2018-09-12T09:50:45.766Z,5.23
2018-09-12T09:53:13.277Z,4.57
2018-09-12T09:55:40.848Z,4.57
2018-09-12T09:58:08.373Z,5.63
2018-09-12T10:00:41.450Z,4.90
2018-09-12T10:03:14.579Z,4.47
2018-09-12T10:05:47.830Z,5.50
2018-09-12T10:08:21.038Z,5.30
2018-09-12T10:10:48.624Z,5.30
2018-09-12T10:13:16.150Z,4.40
2018-09-12T10:15:43.708Z,5.13
2018-09-12T10:18:11.233Z,4.70
2018-09-12T10:20:38.883Z,5.17
2018-09-12T10:23:06.441Z,5.10
2018-09-12T10:25:34.087Z,4.80
2018-09-12T10:28:01.638Z,4.60
2018-09-12T10:30:29.201Z,5.20
2018-09-12T10:32:56.751Z,4.67
2018-09-12T10:35:24.411Z,4.60
2018-09-12T10:37:51.984Z,4.87
2018-09-12T10:40:19.707Z,5.37
2018-09-12T10:42:47.601Z,4.70
2018-09-12T10:45:15.150Z,5.10
2018-09-12T10:47:42.735Z,4.80
2018-09-12T10:50:10.274Z,4.80
2018-09-12T10:52:37.810Z,4.83
2018-09-12T10:55:05.416Z,4.37
2018-09-12T10:57:32.964Z,5.20
2018-09-12T11:00:00.501Z,4.90
2018-09-12T11:02:28.076Z,5.00
2018-09-12T11:04:55.600Z,5.33
2018-09-12T11:07:23.166Z,4.67
2018-09-12T11:09:50.743Z,5.07
2018-09-12T11:12:18.408Z,4.87
2018-09-12T11:14:45.992Z,4.90
2018-09-12T11:17:13.640Z,5.10
2018-09-12T11:19:41.148Z,4.87
2018-09-12T11:22:08.694Z,4.87
2018-09-12T11:24:36.222Z,4.63
2018-09-12T11:27:03.840Z,4.93
2018-09-12T11:29:31.409Z,4.80
2018-09-12T11:31:59.012Z,4.60
2018-09-12T11:34:26.540Z,4.30
2018-09-12T11:36:54.098Z,4.73
2018-09-12T11:39:21.749Z,5.30
2018-09-12T11:41:49.398Z,4.30
2018-09-12T11:44:16.914Z,4.23
2018-09-12T11:46:44.478Z,4.20
2018-09-12T11:49:12.146Z,4.67
2018-09-12T11:51:39.759Z,4.70
2018-09-12T11:54:07.332Z,4.07
2018-09-12T11:56:34.917Z,3.43
2018-09-12T11:59:02.471Z,4.70
2018-09-12T12:01:30.047Z,4.00
2018-09-12T12:03:57.610Z,3.83
2018-09-12T12:06:25.162Z,3.90
2018-09-12T12:08:52.759Z,4.03
2018-09-12T12:11:20.313Z,3.60
2018-09-12T12:13:47.879Z,4.30
2018-09-12T12:16:15.465Z,3.70
2018-09-12T12:18:43.061Z,3.63
2018-09-12T12:21:10.622Z,4.00
2018-09-12T12:23:38.186Z,3.30
2018-09-12T12:26:06.065Z,3.93
2018-09-12T12:28:33.642Z,4.40
2018-09-12T12:31:01.196Z,4.27
2018-09-12T12:33:28.740Z,3.53
2018-09-12T12:35:56.281Z,3.77
2018-09-12T12:38:23.888Z,4.43
2018-09-12T12:40:51.526Z,3.80
2018-09-12T12:43:19.058Z,3.10
2018-09-12T12:45:46.649Z,3.63
2018-09-12T12:48:14.182Z,3.50
2018-09-12T12:50:41.739Z,3.90
2018-09-12T12:53:09.345Z,3.53
2018-09-12T12:55:36.953Z,3.70
2018-09-12T12:58:04.603Z,2.87
2018-09-12T13:00:32.171Z,3.83
2018-09-12T13:02:59.685Z,3.63
2018-09-12T13:05:27.330Z,3.53
2018-09-12T13:07:54.823Z,3.60
2018-09-12T13:10:22.367Z,3.70
2018-09-12T13:12:49.933Z,3.60
2018-09-12T13:15:17.487Z,3.50
2018-09-12T13:17:45.009Z,3.50
2018-09-12T13:20:12.543Z,3.80
2018-09-12T13:22:40.182Z,4.00
2018-09-12T13:25:07.750Z,3.63
2018-09-12T13:27:35.374Z,3.83
2018-09-12T13:30:02.911Z,3.50
2018-09-12T13:32:30.658Z,3.90
2018-09-12T13:34:58.199Z,3.43
2018-09-12T13:37:25.756Z,3.70
2018-09-12T13:39:53.312Z,4.47
2018-09-12T13:42:20.842Z,3.47
2018-09-12T13:44:48.778Z,3.93
2018-09-12T13:47:16.314Z,4.03
2018-09-12T13:49:43.870Z,3.30
2018-09-12T13:52:11.442Z,3.93
2018-09-12T13:54:38.970Z,3.60
2018-09-12T13:57:06.634Z,3.87
2018-09-12T13:59:34.204Z,3.10
2018-09-12T14:02:01.762Z,3.73
2018-09-12T14:04:29.322Z,3.90
2018-09-12T14:06:56.974Z,4.50
2018-09-12T14:09:24.512Z,4.10
2018-09-12T14:11:52.072Z,4.10
2018-09-12T14:14:19.727Z,4.10
2018-09-12T14:16:47.265Z,4.23
2018-09-12T14:19:14.802Z,3.53
2018-09-12T14:21:42.380Z,4.53
2018-09-12T14:24:09.938Z,3.70
2018-09-12T14:26:37.446Z,3.70
2018-09-12T14:29:05.002Z,4.00
2018-09-12T14:31:32.559Z,3.83
2018-09-12T14:34:00.124Z,3.97
2018-09-12T14:36:27.675Z,4.20
2018-09-12T14:38:55.294Z,3.97
2018-09-12T14:41:22.804Z,3.60
2018-09-12T14:43:50.367Z,4.30
2018-09-12T14:46:18.781Z,3.80
2018-09-12T14:48:46.358Z,3.77
2018-09-12T14:51:13.947Z,4.03
2018-09-12T14:53:41.539Z,3.80
2018-09-12T14:56:09.100Z,3.60
2018-09-12T14:58:36.704Z,3.70
2018-09-12T15:01:04.309Z,3.63
2018-09-12T15:03:31.880Z,3.63
2018-09-12T15:05:59.435Z,3.93
2018-09-12T15:08:26.977Z,3.80
2018-09-12T15:10:54.613Z,3.40
2018-09-12T15:13:22.207Z,4.00
2018-09-12T15:15:49.745Z,4.00
2018-09-12T15:18:17.310Z,3.30
2018-09-12T15:20:44.878Z,3.80
2018-09-12T15:23:12.398Z,3.73
2018-09-12T15:25:39.992Z,3.87
2018-09-12T15:28:07.614Z,3.93
2018-09-12T15:30:35.158Z,3.97
2018-09-12T15:33:02.747Z,4.03
2018-09-12T15:35:30.336Z,3.27
2018-09-12T15:37:58.082Z,4.17
2018-09-12T15:40:25.854Z,4.00
2018-09-12T15:42:53.568Z,3.47
2018-09-12T15:45:21.216Z,3.87
2018-09-12T15:47:48.842Z,4.10
2018-09-12T15:50:16.464Z,3.83
2018-09-12T15:52:44.250Z,3.70
2018-09-12T15:55:11.986Z,4.10
2018-09-12T15:57:39.584Z,4.07
2018-09-12T16:00:07.205Z,4.10
2018-09-12T16:02:34.822Z,3.23
2018-09-12T16:05:02.454Z,3.70
2018-09-12T16:07:30.033Z,4.07
2018-09-12T16:09:57.556Z,3.93
2018-09-12T16:12:25.115Z,3.70
2018-09-12T16:14:52.665Z,4.00
2018-09-12T16:17:20.272Z,3.80
2018-09-12T16:19:48.225Z,3.90
2018-09-12T16:22:15.890Z,4.20
2018-09-12T16:24:43.491Z,3.10
2018-09-12T16:27:11.090Z,4.60
2018-09-12T16:29:38.735Z,4.37
2018-09-12T16:32:06.361Z,4.50
2018-09-12T16:34:33.927Z,4.40
2018-09-12T16:37:01.618Z,4.50
2018-09-12T16:39:29.229Z,4.73
2018-09-12T16:41:56.873Z,3.77
2018-09-12T16:44:24.476Z,4.43
2018-09-12T16:46:52.058Z,4.10
2018-09-12T16:49:19.670Z,4.70
2018-09-12T16:51:47.250Z,4.53
2018-09-12T16:54:15.033Z,4.90
2018-09-12T16:56:43.113Z,4.60
2018-09-12T16:59:10.831Z,4.63
2018-09-12T17:01:38.425Z,5.30
2018-09-12T17:04:06.051Z,4.67
2018-09-12T17:06:33.657Z,4.90
2018-09-12T17:09:01.285Z,5.47
2018-09-12T17:11:28.893Z,4.73
2018-09-12T17:13:56.535Z,4.40
2018-09-12T17:16:24.116Z,4.97
2018-09-12T17:18:51.816Z,4.97
2018-09-12T17:21:19.431Z,5.37
2018-09-12T17:23:47.053Z,5.63
2018-09-12T17:26:14.592Z,5.97
2018-09-12T17:28:42.235Z,5.43
2018-09-12T17:31:09.961Z,5.07
2018-09-12T17:33:37.631Z,5.97
2018-09-12T17:36:05.281Z,5.50
2018-09-12T17:38:33.164Z,6.00
2018-09-12T17:41:00.977Z,5.57
2018-09-12T17:43:28.656Z,5.50
2018-09-12T17:45:56.277Z,5.30
2018-09-12T17:48:24.071Z,6.40
2018-09-12T17:50:51.966Z,5.40
2018-09-12T17:53:19.598Z,5.67
2018-09-12T17:55:47.357Z,5.80
2018-09-12T17:58:15.026Z,5.67
2018-09-12T18:00:42.795Z,5.00
2018-09-12T18:03:10.405Z,6.30
2018-09-12T18:05:38.132Z,5.87
2018-09-12T18:08:05.887Z,5.17
2018-09-12T18:10:33.600Z,5.53
2018-09-12T18:13:01.247Z,5.10
2018-09-12T18:15:28.917Z,5.00
2018-09-12T18:17:56.541Z,5.10
2018-09-12T18:20:24.172Z,6.20
2018-09-12T18:22:52.006Z,6.30
2018-09-12T18:25:20.959Z,5.50
2018-09-12T18:27:49.036Z,5.83
2018-09-12T18:30:16.911Z,6.20
2018-09-12T18:32:44.611Z,6.10
2018-09-12T18:35:12.657Z,6.40
2018-09-12T18:37:40.331Z,6.37
2018-09-12T18:40:10.081Z,5.80
2018-09-12T18:42:37.846Z,6.17
2018-09-12T18:45:05.583Z,6.03
2018-09-12T18:47:33.772Z,5.93
2018-09-12T18:50:01.476Z,5.57
2018-09-12T18:52:29.184Z,6.00
2018-09-12T18:54:56.930Z,5.90
2018-09-12T18:57:25.879Z,6.50
2018-09-12T18:59:53.562Z,6.03
2018-09-12T19:02:21.271Z,6.30
2018-09-12T19:04:48.964Z,7.30
2018-09-12T19:07:16.872Z,7.43
2018-09-12T19:09:45.027Z,6.93
2018-09-12T19:12:13.697Z,7.13
2018-09-12T19:14:41.345Z,5.80
2018-09-12T19:17:09.924Z,6.93
2018-09-12T19:19:37.984Z,7.20
2018-09-12T19:22:06.008Z,6.57
2018-09-12T19:24:33.779Z,6.37
2018-09-12T19:27:01.804Z,7.20
2018-09-12T19:29:29.523Z,7.00
2018-09-12T19:31:57.243Z,6.57
2018-09-12T19:34:25.887Z,7.07
2018-09-12T19:36:53.566Z,7.50
2018-09-12T19:39:22.078Z,7.47
2018-09-12T19:41:50.409Z,9.17
2018-09-12T19:44:18.144Z,8.17
2018-09-12T19:46:48.141Z,8.53
2018-09-12T19:49:15.845Z,9.83
2018-09-12T19:51:43.457Z,9.03
2018-09-12T19:54:11.126Z,9.10
2018-09-12T19:56:38.776Z,8.60
2018-09-12T19:59:06.468Z,8.70
2018-09-12T20:01:34.167Z,8.60
2018-09-12T20:04:01.832Z,9.20
2018-09-12T20:06:30.425Z,9.30
2018-09-12T20:08:58.129Z,8.97
2018-09-12T20:11:25.817Z,9.23
2018-09-12T20:13:53.542Z,7.90
2018-09-12T20:16:21.180Z,9.00
2018-09-12T20:18:49.791Z,8.80
2018-09-12T20:21:18.061Z,8.13
2018-09-12T20:23:45.823Z,8.70
2018-09-12T20:26:13.415Z,8.03
2018-09-12T20:28:46.809Z,9.63
2018-09-12T20:31:14.432Z,8.80
2018-09-12T20:33:42.039Z,8.20
2018-09-12T20:36:09.650Z,9.30
2018-09-12T20:38:37.273Z,9.20
2018-09-12T20:41:05.019Z,9.53
2018-09-12T20:43:33.034Z,9.80
2018-09-12T20:46:00.737Z,8.50
2018-09-12T20:48:28.506Z,10.63
2018-09-12T20:50:56.142Z,9.97
2018-09-12T20:53:23.944Z,10.10
2018-09-12T20:55:51.554Z,9.90
2018-09-12T20:58:19.152Z,10.30
2018-09-12T21:00:46.700Z,10.77
2018-09-12T21:03:14.262Z,11.10
2018-09-12T21:05:41.860Z,11.60
2018-09-12T21:08:09.414Z,11.10
2018-09-12T21:10:37.002Z,9.83
2018-09-12T21:13:04.582Z,10.43
2018-09-12T21:15:32.138Z,10.83
2018-09-12T21:17:59.717Z,10.90
2018-09-12T21:20:27.231Z,11.30
2018-09-12T21:22:54.815Z,11.23
2018-09-12T21:25:22.420Z,12.20
2018-09-12T21:27:50.164Z,12.03
2018-09-12T21:30:18.313Z,11.17
2018-09-12T21:32:46.010Z,12.47
2018-09-12T21:35:13.541Z,12.87
2018-09-12T21:37:41.114Z,12.97
2018-09-12T21:40:08.654Z,14.23
2018-09-12T21:42:36.229Z,13.73
2018-09-12T21:45:03.957Z,14.43
2018-09-12T21:47:31.559Z,15.13
2018-09-12T21:49:59.093Z,13.60
2018-09-12T21:52:26.666Z,16.50
2018-09-12T21:54:54.191Z,13.30
2018-09-12T21:57:21.747Z,12.63
2018-09-12T21:59:50.139Z,14.73
2018-09-12T22:02:17.783Z,13.40
2018-09-12T22:04:45.433Z,13.67
2018-09-12T22:07:13.065Z,13.40
2018-09-12T22:09:40.606Z,13.90
2018-09-12T22:12:08.201Z,14.00
2018-09-12T22:14:35.770Z,13.20
2018-09-12T22:17:03.330Z,13.17
2018-09-12T22:19:30.910Z,13.23
2018-09-12T22:21:58.529Z,12.90
2018-09-12T22:24:26.101Z,14.17
2018-09-12T22:26:53.743Z,11.67
2018-09-12T22:29:21.301Z,11.67
2018-09-12T22:31:48.907Z,12.30
2018-09-12T22:34:16.480Z,11.77
2018-09-12T22:36:44.062Z,11.63
2018-09-12T22:39:11.795Z,11.10
2018-09-12T22:41:39.777Z,13.20
2018-09-12T22:44:07.362Z,11.90
2018-09-12T22:46:34.935Z,12.00
2018-09-12T22:49:02.491Z,11.97
2018-09-12T22:51:30.030Z,10.70
2018-09-12T22:53:57.694Z,12.50
2018-09-12T22:56:25.275Z,12.60
2018-09-12T22:58:53.041Z,12.07
2018-09-12T23:01:20.583Z,11.17
2018-09-12T23:03:48.140Z,12.00
2018-09-12T23:06:15.705Z,11.60
2018-09-12T23:08:43.652Z,11.50
2018-09-12T23:11:11.270Z,11.60
2018-09-12T23:13:38.819Z,11.57
2018-09-12T23:16:06.362Z,10.30
2018-09-12T23:18:33.959Z,10.60
2018-09-12T23:21:01.623Z,10.00
2018-09-12T23:23:29.154Z,10.53
2018-09-12T23:25:56.778Z,9.87
2018-09-12T23:28:24.418Z,10.60
2018-09-12T23:30:51.952Z,10.00
2018-09-12T23:33:19.472Z,9.73
2018-09-12T23:35:47.199Z,10.37
2018-09-12T23:38:14.700Z,9.07
2018-09-12T23:40:42.233Z,9.93
2018-09-12T23:43:09.766Z,10.17
2018-09-12T23:45:37.337Z,10.70
2018-09-12T23:48:04.897Z,9.93
2018-09-12T23:50:32.415Z,10.20
2018-09-12T23:53:00.003Z,9.90
2018-09-12T23:55:27.590Z,11.27
2018-09-12T23:57:55.144Z,10.33
